sensor_id;sensor_type;location;lat;lon;timestamp;pressure;altitude;pressure_sealevel;temperature;humidity
10897;BME280;5501;51.176;6.470;2022-10-14T00:04:32;101039.16;;;14.15;100.00
10897;BME280;5501;51.176;6.470;2022-10-14T00:09:34;101033.38;;;14.27;100.00
10897;BME280;5501;51.176;6.470;2022-10-14T00:14:35;101029.56;;;14.34;100.00
10897;BME280;5501;51.176;6.470;2022-10-14T00:19:36;101030.00;;;14.22;100.00
10897;BME280;5501;51.176;6.470;2022-10-14T00:24:38;101028.13;;;14.24;100.00
10897;BME280;5501;51.176;6.470;2022-10-14T00:29:39;101026.56;;;14.17;100.00
10897;BME280;5501;51.176;6.470;2022-10-14T00:34:41;101028.25;;;14.21;100.00
10897;BME280;5501;51.176;6.470;2022-10-14T00:39:43;101037.50;;;14.35;100.00
10897;BME280;5501;51.176;6.470;2022-10-14T00:49:46;101022.50;;;14.07;100.00
10897;BME280;5501;51.176;6.470;2022-10-14T00:54:57;101030.91;;;14.21;100.00
10897;BME280;5501;51.176;6.470;2022-10-14T01:00:05;101034.78;;;14.12;100.00
10897;BME280;5501;51.176;6.470;2022-10-14T01:05:09;101026.28;;;14.26;100.00
10897;BME280;5501;51.176;6.470;2022-10-14T01:16:14;101003.69;;;14.10;100.00
10897;BME280;5501;51.176;6.470;2022-10-14T01:21:47;101000.28;;;14.05;100.00
10897;BME280;5501;51.176;6.470;2022-10-14T01:27:13;100992.16;;;14.08;100.00
10897;BME280;5501;51.176;6.470;2022-10-14T01:32:27;100978.69;;;14.11;100.00
10897;BME280;5501;51.176;6.470;2022-10-14T01:37:31;100974.31;;;14.08;100.00
10897;BME280;5501;51.176;6.470;2022-10-14T01:42:37;100979.00;;;14.26;100.00
10897;BME280;5501;51.176;6.470;2022-10-14T01:47:40;100977.63;;;14.15;100.00
10897;BME280;5501;51.176;6.470;2022-10-14T01:52:49;100961.94;;;14.29;100.00
10897;BME280;5501;51.176;6.470;2022-10-14T01:57:54;100962.19;;;14.23;100.00
10897;BME280;5501;51.176;6.470;2022-10-14T02:02:58;100955.75;;;14.28;100.00
10897;BME280;5501;51.176;6.470;2022-10-14T02:13:42;100945.88;;;14.29;100.00
10897;BME280;5501;51.176;6.470;2022-10-14T02:19:17;100945.78;;;14.32;100.00
10897;BME280;5501;51.176;6.470;2022-10-14T02:24:29;100947.50;;;14.33;100.00
10897;BME280;5501;51.176;6.470;2022-10-14T02:29:33;100943.78;;;14.37;100.00
10897;BME280;5501;51.176;6.470;2022-10-14T02:34:36;100933.34;;;14.31;100.00
10897;BME280;5501;51.176;6.470;2022-10-14T02:39:51;100922.25;;;14.40;100.00
10897;BME280;5501;51.176;6.470;2022-10-14T02:45:02;100916.59;;;14.26;100.00
10897;BME280;5501;51.176;6.470;2022-10-14T02:50:03;100912.88;;;14.30;100.00
10897;BME280;5501;51.176;6.470;2022-10-14T02:55:05;100907.03;;;14.19;100.00
10897;BME280;5501;51.176;6.470;2022-10-14T03:00:07;100900.66;;;14.23;100.00
10897;BME280;5501;51.176;6.470;2022-10-14T03:05:09;100902.41;;;14.24;100.00
10897;BME280;5501;51.176;6.470;2022-10-14T03:10:12;100898.06;;;14.20;100.00
10897;BME280;5501;51.176;6.470;2022-10-14T03:15:14;100897.19;;;14.19;100.00
10897;BME280;5501;51.176;6.470;2022-10-14T03:20:16;100894.72;;;14.15;100.00
10897;BME280;5501;51.176;6.470;2022-10-14T03:25:22;100887.38;;;14.20;100.00
10897;BME280;5501;51.176;6.470;2022-10-14T03:30:30;100889.25;;;14.18;100.00
10897;BME280;5501;51.176;6.470;2022-10-14T03:35:37;100880.50;;;14.13;100.00
10897;BME280;5501;51.176;6.470;2022-10-14T03:40:44;100882.97;;;14.19;100.00
10897;BME280;5501;51.176;6.470;2022-10-14T03:45:47;100875.16;;;14.13;100.00
10897;BME280;5501;51.176;6.470;2022-10-14T03:50:52;100875.06;;;14.16;100.00
10897;BME280;5501;51.176;6.470;2022-10-14T03:55:53;100878.53;;;14.18;100.00
10897;BME280;5501;51.176;6.470;2022-10-14T04:00:55;100876.03;;;14.13;100.00
10897;BME280;5501;51.176;6.470;2022-10-14T04:06:29;100870.25;;;14.25;100.00
10897;BME280;5501;51.176;6.470;2022-10-14T04:11:34;100876.78;;;14.17;100.00
10897;BME280;5501;51.176;6.470;2022-10-14T04:16:40;100873.44;;;14.12;100.00
10897;BME280;5501;51.176;6.470;2022-10-14T04:21:46;100867.34;;;14.08;100.00
10897;BME280;5501;51.176;6.470;2022-10-14T04:26:50;100871.69;;;14.11;100.00
10897;BME280;5501;51.176;6.470;2022-10-14T04:32:00;100850.78;;;14.22;100.00
10897;BME280;5501;51.176;6.470;2022-10-14T04:37:03;100861.78;;;14.13;100.00
10897;BME280;5501;51.176;6.470;2022-10-14T04:42:36;100853.28;;;14.03;100.00
10897;BME280;5501;51.176;6.470;2022-10-14T04:47:41;100841.72;;;14.03;100.00
10897;BME280;5501;51.176;6.470;2022-10-14T04:52:51;100848.56;;;14.10;100.00
10897;BME280;5501;51.176;6.470;2022-10-14T04:57:53;100835.09;;;14.11;100.00
10897;BME280;5501;51.176;6.470;2022-10-14T05:02:55;100822.72;;;14.09;100.00
10897;BME280;5501;51.176;6.470;2022-10-14T05:08:03;100823.56;;;14.11;100.00
10897;BME280;5501;51.176;6.470;2022-10-14T05:13:11;100825.97;;;14.17;100.00
10897;BME280;5501;51.176;6.470;2022-10-14T05:18:25;100814.13;;;14.24;100.00
10897;BME280;5501;51.176;6.470;2022-10-14T05:23:34;100813.78;;;14.10;100.00
10897;BME280;5501;51.176;6.470;2022-10-14T05:28:36;100815.63;;;14.31;100.00
10897;BME280;5501;51.176;6.470;2022-10-14T05:33:42;100819.69;;;14.18;100.00
10897;BME280;5501;51.176;6.470;2022-10-14T05:38:44;100807.03;;;14.23;100.00
10897;BME280;5501;51.176;6.470;2022-10-14T05:43:45;100803.66;;;14.18;100.00
10897;BME280;5501;51.176;6.470;2022-10-14T05:48:47;100804.44;;;14.20;100.00
10897;BME280;5501;51.176;6.470;2022-10-14T05:53:49;100800.47;;;14.08;100.00
10897;BME280;5501;51.176;6.470;2022-10-14T05:58:52;100784.22;;;14.13;100.00
10897;BME280;5501;51.176;6.470;2022-10-14T06:03:54;100789.25;;;14.22;100.00
10897;BME280;5501;51.176;6.470;2022-10-14T06:08:56;100800.03;;;14.19;100.00
10897;BME280;5501;51.176;6.470;2022-10-14T06:13:58;100794.09;;;14.34;100.00
10897;BME280;5501;51.176;6.470;2022-10-14T06:19:01;100795.63;;;14.18;100.00
10897;BME280;5501;51.176;6.470;2022-10-14T06:24:02;100787.22;;;14.05;100.00
10897;BME280;5501;51.176;6.470;2022-10-14T06:29:04;100789.34;;;14.19;100.00
10897;BME280;5501;51.176;6.470;2022-10-14T06:34:05;100784.81;;;14.21;100.00
10897;BME280;5501;51.176;6.470;2022-10-14T06:39:08;100780.91;;;14.29;100.00
10897;BME280;5501;51.176;6.470;2022-10-14T06:44:10;100778.03;;;14.34;100.00
10897;BME280;5501;51.176;6.470;2022-10-14T06:49:11;100774.13;;;14.21;100.00
10897;BME280;5501;51.176;6.470;2022-10-14T06:54:13;100765.84;;;14.27;100.00
10897;BME280;5501;51.176;6.470;2022-10-14T06:59:14;100767.56;;;14.28;100.00
10897;BME280;5501;51.176;6.470;2022-10-14T07:04:16;100762.09;;;14.31;100.00
10897;BME280;5501;51.176;6.470;2022-10-14T07:09:17;100750.66;;;14.27;100.00
10897;BME280;5501;51.176;6.470;2022-10-14T07:14:19;100753.69;;;14.40;100.00
10897;BME280;5501;51.176;6.470;2022-10-14T07:19:21;100759.59;;;14.48;100.00
10897;BME280;5501;51.176;6.470;2022-10-14T07:24:22;100759.47;;;14.51;100.00
10897;BME280;5501;51.176;6.470;2022-10-14T07:29:24;100754.28;;;14.46;100.00
10897;BME280;5501;51.176;6.470;2022-10-14T07:34:25;100743.25;;;14.54;100.00
10897;BME280;5501;51.176;6.470;2022-10-14T07:39:27;100753.69;;;14.60;100.00
10897;BME280;5501;51.176;6.470;2022-10-14T07:44:29;100747.16;;;14.47;100.00
10897;BME280;5501;51.176;6.470;2022-10-14T07:49:30;100746.44;;;14.62;100.00
10897;BME280;5501;51.176;6.470;2022-10-14T07:54:32;100748.22;;;14.63;100.00
10897;BME280;5501;51.176;6.470;2022-10-14T07:59:33;100756.63;;;14.74;100.00
10897;BME280;5501;51.176;6.470;2022-10-14T08:04:35;100754.16;;;14.89;100.00
10897;BME280;5501;51.176;6.470;2022-10-14T08:09:36;100737.28;;;14.87;100.00
10897;BME280;5501;51.176;6.470;2022-10-14T08:14:38;100743.78;;;14.82;100.00
10897;BME280;5501;51.176;6.470;2022-10-14T08:19:39;100737.28;;;14.87;100.00
10897;BME280;5501;51.176;6.470;2022-10-14T08:24:41;100729.44;;;15.03;100.00
10897;BME280;5501;51.176;6.470;2022-10-14T08:29:42;100719.81;;;14.99;100.00
10897;BME280;5501;51.176;6.470;2022-10-14T08:34:44;100711.09;;;14.94;100.00
10897;BME280;5501;51.176;6.470;2022-10-14T08:39:45;100716.19;;;15.00;100.00
10897;BME280;5501;51.176;6.470;2022-10-14T08:44:52;100701.84;;;15.01;100.00
10897;BME280;5501;51.176;6.470;2022-10-14T08:50:04;100707.66;;;15.10;100.00
10897;BME280;5501;51.176;6.470;2022-10-14T08:55:24;100709.00;;;15.19;100.00
10897;BME280;5501;51.176;6.470;2022-10-14T09:00:29;100694.69;;;15.20;100.00
10897;BME280;5501;51.176;6.470;2022-10-14T09:05:31;100684.19;;;15.15;100.00
10897;BME280;5501;51.176;6.470;2022-10-14T09:10:39;100693.31;;;15.30;100.00
10897;BME280;5501;51.176;6.470;2022-10-14T09:15:44;100688.50;;;15.38;100.00
10897;BME280;5501;51.176;6.470;2022-10-14T09:20:47;100680.44;;;15.38;100.00
10897;BME280;5501;51.176;6.470;2022-10-14T09:26:10;100681.16;;;15.60;100.00
10897;BME280;5501;51.176;6.470;2022-10-14T09:31:15;100687.34;;;15.79;100.00
10897;BME280;5501;51.176;6.470;2022-10-14T09:36:19;100681.28;;;15.76;100.00
10897;BME280;5501;51.176;6.470;2022-10-14T09:41:25;100682.28;;;15.73;100.00
10897;BME280;5501;51.176;6.470;2022-10-14T09:46:28;100676.16;;;15.88;100.00
10897;BME280;5501;51.176;6.470;2022-10-14T09:51:32;100676.56;;;15.98;100.00
10897;BME280;5501;51.176;6.470;2022-10-14T09:56:36;100676.94;;;15.73;100.00
10897;BME280;5501;51.176;6.470;2022-10-14T10:02:00;100668.91;;;15.90;100.00
10897;BME280;5501;51.176;6.470;2022-10-14T10:07:09;100673.88;;;15.98;100.00
10897;BME280;5501;51.176;6.470;2022-10-14T10:12:28;100667.81;;;15.94;100.00
10897;BME280;5501;51.176;6.470;2022-10-14T10:17:34;100661.50;;;15.95;100.00
10897;BME280;5501;51.176;6.470;2022-10-14T10:22:38;100650.91;;;15.92;100.00
10897;BME280;5501;51.176;6.470;2022-10-14T10:27:41;100659.44;;;16.00;100.00
10897;BME280;5501;51.176;6.470;2022-10-14T10:33:02;100650.47;;;16.01;100.00
10897;BME280;5501;51.176;6.470;2022-10-14T10:38:21;100652.69;;;15.93;100.00
10897;BME280;5501;51.176;6.470;2022-10-14T10:43:36;100646.75;;;15.87;100.00
10897;BME280;5501;51.176;6.470;2022-10-14T10:48:45;100642.56;;;15.81;100.00
10897;BME280;5501;51.176;6.470;2022-10-14T10:53:57;100638.50;;;15.73;100.00
10897;BME280;5501;51.176;6.470;2022-10-14T11:04:32;100620.00;;;15.68;100.00
10897;BME280;5501;51.176;6.470;2022-10-14T11:15:29;100608.81;;;15.77;100.00
10897;BME280;5501;51.176;6.470;2022-10-14T11:21:08;100611.63;;;15.74;100.00
10897;BME280;5501;51.176;6.470;2022-10-14T11:26:28;100599.66;;;15.81;100.00
10897;BME280;5501;51.176;6.470;2022-10-14T11:47:11;100586.72;;;16.06;100.00
10897;BME280;5501;51.176;6.470;2022-10-14T11:52:27;100569.44;;;15.95;100.00
10897;BME280;5501;51.176;6.470;2022-10-14T11:57:35;100574.06;;;16.08;100.00
10897;BME280;5501;51.176;6.470;2022-10-14T12:02:48;100575.19;;;16.04;100.00
10897;BME280;5501;51.176;6.470;2022-10-14T12:13:44;100557.31;;;16.20;100.00
10897;BME280;5501;51.176;6.470;2022-10-14T12:18:57;100552.91;;;16.19;100.00
10897;BME280;5501;51.176;6.470;2022-10-14T12:24:08;100546.47;;;16.06;100.00
10897;BME280;5501;51.176;6.470;2022-10-14T12:29:16;100538.72;;;16.17;100.00
10897;BME280;5501;51.176;6.470;2022-10-14T12:34:39;100533.00;;;16.23;100.00
10897;BME280;5501;51.176;6.470;2022-10-14T12:39:41;100529.38;;;16.24;100.00
10897;BME280;5501;51.176;6.470;2022-10-14T12:44:44;100519.28;;;16.29;100.00
10897;BME280;5501;51.176;6.470;2022-10-14T12:49:51;100521.06;;;16.13;100.00
10897;BME280;5501;51.176;6.470;2022-10-14T12:54:54;100490.75;;;16.11;100.00
10897;BME280;5501;51.176;6.470;2022-10-14T12:59:59;100478.66;;;16.20;100.00
10897;BME280;5501;51.176;6.470;2022-10-14T13:05:04;100483.81;;;16.07;100.00
10897;BME280;5501;51.176;6.470;2022-10-14T13:15:51;100478.44;;;16.07;100.00
10897;BME280;5501;51.176;6.470;2022-10-14T13:20:53;100474.81;;;16.08;100.00
10897;BME280;5501;51.176;6.470;2022-10-14T13:26:22;100472.75;;;16.13;100.00
10897;BME280;5501;51.176;6.470;2022-10-14T13:31:45;100470.69;;;16.18;100.00
10897;BME280;5501;51.176;6.470;2022-10-14T13:42:22;100452.81;;;16.65;100.00
10897;BME280;5501;51.176;6.470;2022-10-14T13:47:25;100451.03;;;16.50;100.00
10897;BME280;5501;51.176;6.470;2022-10-14T13:52:27;100453.63;;;16.67;100.00
10897;BME280;5501;51.176;6.470;2022-10-14T13:57:29;100446.97;;;16.74;100.00
10897;BME280;5501;51.176;6.470;2022-10-14T14:02:51;100444.59;;;16.68;100.00
10897;BME280;5501;51.176;6.470;2022-10-14T14:08:00;100438.34;;;16.68;100.00
10897;BME280;5501;51.176;6.470;2022-10-14T14:13:23;100434.38;;;16.75;100.00
10897;BME280;5501;51.176;6.470;2022-10-14T14:18:35;100425.97;;;16.65;100.00
10897;BME280;5501;51.176;6.470;2022-10-14T14:23:59;100415.69;;;16.58;100.00
10897;BME280;5501;51.176;6.470;2022-10-14T14:29:18;100426.41;;;16.58;100.00
10897;BME280;5501;51.176;6.470;2022-10-14T14:34:21;100404.94;;;16.58;100.00
10897;BME280;5501;51.176;6.470;2022-10-14T14:39:28;100411.88;;;16.46;100.00
10897;BME280;5501;51.176;6.470;2022-10-14T14:44:31;100415.81;;;16.39;100.00
10897;BME280;5501;51.176;6.470;2022-10-14T14:49:36;100415.97;;;16.36;100.00
10897;BME280;5501;51.176;6.470;2022-10-14T14:54:46;100410.63;;;16.36;100.00
10897;BME280;5501;51.176;6.470;2022-10-14T14:59:57;100402.50;;;16.53;100.00
10897;BME280;5501;51.176;6.470;2022-10-14T15:05:05;100395.56;;;16.49;100.00
10897;BME280;5501;51.176;6.470;2022-10-14T15:10:20;100390.22;;;16.49;100.00
10897;BME280;5501;51.176;6.470;2022-10-14T15:15:31;100387.63;;;16.63;100.00
10897;BME280;5501;51.176;6.470;2022-10-14T15:20:40;100382.59;;;16.57;100.00
10897;BME280;5501;51.176;6.470;2022-10-14T15:25:55;100382.78;;;16.54;100.00
10897;BME280;5501;51.176;6.470;2022-10-14T15:30:58;100379.31;;;16.52;100.00
10897;BME280;5501;51.176;6.470;2022-10-14T15:36:09;100376.78;;;16.49;100.00
10897;BME280;5501;51.176;6.470;2022-10-14T15:41:10;100369.63;;;16.50;100.00
10897;BME280;5501;51.176;6.470;2022-10-14T15:46:12;100372.53;;;16.45;100.00
10897;BME280;5501;51.176;6.470;2022-10-14T15:51:34;100368.56;;;16.37;100.00
10897;BME280;5501;51.176;6.470;2022-10-14T15:56:35;100380.41;;;16.33;100.00
10897;BME280;5501;51.176;6.470;2022-10-14T16:01:37;100372.00;;;16.39;100.00
10897;BME280;5501;51.176;6.470;2022-10-14T16:06:41;100369.59;;;16.34;100.00
10897;BME280;5501;51.176;6.470;2022-10-14T16:11:42;100380.34;;;16.34;100.00
10897;BME280;5501;51.176;6.470;2022-10-14T16:16:44;100373.84;;;16.38;100.00
10897;BME280;5501;51.176;6.470;2022-10-14T16:21:46;100365.94;;;16.35;100.00
10897;BME280;5501;51.176;6.470;2022-10-14T16:26:50;100362.66;;;16.30;100.00
10897;BME280;5501;51.176;6.470;2022-10-14T16:31:52;100358.50;;;16.25;100.00
10897;BME280;5501;51.176;6.470;2022-10-14T16:36:54;100361.34;;;16.22;100.00
10897;BME280;5501;51.176;6.470;2022-10-14T16:41:56;100359.63;;;16.21;100.00
10897;BME280;5501;51.176;6.470;2022-10-14T16:46:58;100368.28;;;16.10;100.00
10897;BME280;5501;51.176;6.470;2022-10-14T16:52:20;100366.59;;;15.92;100.00
10897;BME280;5501;51.176;6.470;2022-10-14T16:57:22;100357.97;;;15.87;100.00
10897;BME280;5501;51.176;6.470;2022-10-14T17:02:23;100374.03;;;15.87;100.00
10897;BME280;5501;51.176;6.470;2022-10-14T17:07:32;100372.31;;;15.86;100.00
10897;BME280;5501;51.176;6.470;2022-10-14T17:12:34;100381.31;;;15.85;100.00
10897;BME280;5501;51.176;6.470;2022-10-14T17:17:36;100376.13;;;15.82;100.00
10897;BME280;5501;51.176;6.470;2022-10-14T17:22:40;100367.13;;;15.83;100.00
10897;BME280;5501;51.176;6.470;2022-10-14T17:27:43;100355.19;;;15.73;100.00
10897;BME280;5501;51.176;6.470;2022-10-14T17:32:44;100348.94;;;15.73;100.00
10897;BME280;5501;51.176;6.470;2022-10-14T17:37:45;100350.13;;;15.67;100.00
10897;BME280;5501;51.176;6.470;2022-10-14T17:42:47;100350.63;;;15.58;100.00
10897;BME280;5501;51.176;6.470;2022-10-14T17:47:52;100353.25;;;15.60;100.00
10897;BME280;5501;51.176;6.470;2022-10-14T17:52:54;100358.53;;;15.61;100.00
10897;BME280;5501;51.176;6.470;2022-10-14T17:57:58;100359.47;;;15.60;100.00
10897;BME280;5501;51.176;6.470;2022-10-14T18:03:00;100352.03;;;15.65;100.00
10897;BME280;5501;51.176;6.470;2022-10-14T18:08:02;100357.81;;;15.58;100.00
10897;BME280;5501;51.176;6.470;2022-10-14T18:13:04;100354.59;;;15.51;100.00
10897;BME280;5501;51.176;6.470;2022-10-14T18:18:05;100358.22;;;15.50;100.00
10897;BME280;5501;51.176;6.470;2022-10-14T18:23:08;100356.34;;;15.52;100.00
10897;BME280;5501;51.176;6.470;2022-10-14T18:28:10;100356.22;;;15.54;100.00
10897;BME280;5501;51.176;6.470;2022-10-14T18:33:12;100348.47;;;15.49;100.00
10897;BME280;5501;51.176;6.470;2022-10-14T18:38:13;100353.66;;;15.52;100.00
10897;BME280;5501;51.176;6.470;2022-10-14T18:43:14;100338.19;;;15.57;100.00
10897;BME280;5501;51.176;6.470;2022-10-14T18:48:16;100343.63;;;15.56;100.00
10897;BME280;5501;51.176;6.470;2022-10-14T18:53:20;100328.13;;;15.45;100.00
10897;BME280;5501;51.176;6.470;2022-10-14T18:58:21;100343.69;;;15.39;100.00
10897;BME280;5501;51.176;6.470;2022-10-14T19:03:23;100328.22;;;15.44;100.00
10897;BME280;5501;51.176;6.470;2022-10-14T19:08:24;100328.81;;;15.49;100.00
10897;BME280;5501;51.176;6.470;2022-10-14T19:13:26;100332.44;;;15.48;100.00
10897;BME280;5501;51.176;6.470;2022-10-14T19:18:28;100328.81;;;15.49;100.00
10897;BME280;5501;51.176;6.470;2022-10-14T19:23:30;100327.97;;;15.48;100.00
10897;BME280;5501;51.176;6.470;2022-10-14T19:28:32;100328.75;;;15.50;100.00
10897;BME280;5501;51.176;6.470;2022-10-14T19:33:36;100322.63;;;15.48;100.00
10897;BME280;5501;51.176;6.470;2022-10-14T19:38:38;100314.16;;;15.56;100.00
10897;BME280;5501;51.176;6.470;2022-10-14T19:43:40;100304.00;;;15.45;100.00
10897;BME280;5501;51.176;6.470;2022-10-14T19:48:41;100304.97;;;15.44;100.00
10897;BME280;5501;51.176;6.470;2022-10-14T19:53:43;100285.94;;;15.49;100.00
10897;BME280;5501;51.176;6.470;2022-10-14T19:58:49;100294.25;;;15.44;100.00
10897;BME280;5501;51.176;6.470;2022-10-14T20:03:51;100291.81;;;15.40;100.00
10897;BME280;5501;51.176;6.470;2022-10-14T20:08:53;100295.03;;;15.29;100.00
10897;BME280;5501;51.176;6.470;2022-10-14T20:13:55;100295.25;;;15.24;100.00
10897;BME280;5501;51.176;6.470;2022-10-14T20:18:56;100282.91;;;15.22;100.00
10897;BME280;5501;51.176;6.470;2022-10-14T20:23:58;100281.19;;;15.21;100.00
10897;BME280;5501;51.176;6.470;2022-10-14T20:29:00;100281.19;;;15.21;100.00
10897;BME280;5501;51.176;6.470;2022-10-14T20:34:01;100275.75;;;15.22;100.00
10897;BME280;5501;51.176;6.470;2022-10-14T20:39:06;100274.75;;;15.08;100.00
10897;BME280;5501;51.176;6.470;2022-10-14T20:44:07;100276.47;;;15.09;100.00
10897;BME280;5501;51.176;6.470;2022-10-14T20:49:09;100269.53;;;15.05;100.00
10897;BME280;5501;51.176;6.470;2022-10-14T20:54:11;100265.59;;;15.12;100.00
10897;BME280;5501;51.176;6.470;2022-10-14T20:59:12;100267.81;;;15.04;100.00
10897;BME280;5501;51.176;6.470;2022-10-14T21:04:14;100264.53;;;14.99;100.00
10897;BME280;5501;51.176;6.470;2022-10-14T21:09:16;100273.81;;;14.92;100.00
10897;BME280;5501;51.176;6.470;2022-10-14T21:14:18;100272.09;;;14.91;100.00
10897;BME280;5501;51.176;6.470;2022-10-14T21:19:19;100280.59;;;14.99;100.00
10897;BME280;5501;51.176;6.470;2022-10-14T21:24:22;100282.63;;;14.94;100.00
10897;BME280;5501;51.176;6.470;2022-10-14T21:29:25;100284.03;;;15.01;100.00
10897;BME280;5501;51.176;6.470;2022-10-14T21:34:27;100262.22;;;14.91;100.00
10897;BME280;5501;51.176;6.470;2022-10-14T21:39:30;100274.47;;;14.80;100.00
10897;BME280;5501;51.176;6.470;2022-10-14T21:44:31;100270.84;;;14.81;100.00
10897;BME280;5501;51.176;6.470;2022-10-14T21:49:33;100267.19;;;14.82;100.00
10897;BME280;5501;51.176;6.470;2022-10-14T21:54:34;100274.47;;;14.80;100.00
10897;BME280;5501;51.176;6.470;2022-10-14T21:59:35;100259.09;;;14.83;100.00
10897;BME280;5501;51.176;6.470;2022-10-14T22:04:37;100271.94;;;14.77;100.00
10897;BME280;5501;51.176;6.470;2022-10-14T22:09:38;100257.66;;;14.76;100.00
10897;BME280;5501;51.176;6.470;2022-10-14T22:14:40;100268.97;;;14.83;100.00
10897;BME280;5501;51.176;6.470;2022-10-14T22:19:41;100272.25;;;14.88;100.00
10897;BME280;5501;51.176;6.470;2022-10-14T22:24:43;100273.97;;;14.89;100.00
10897;BME280;5501;51.176;6.470;2022-10-14T22:29:44;100256.34;;;14.85;100.00
10897;BME280;5501;51.176;6.470;2022-10-14T22:34:46;100263.50;;;14.84;100.00
10897;BME280;5501;51.176;6.470;2022-10-14T22:39:47;100272.19;;;14.89;100.00
10897;BME280;5501;51.176;6.470;2022-10-14T22:44:49;100263.34;;;14.87;100.00
10897;BME280;5501;51.176;6.470;2022-10-14T22:49:50;100262.38;;;14.88;100.00
10897;BME280;5501;51.176;6.470;2022-10-14T22:54:52;100263.25;;;14.89;100.00
10897;BME280;5501;51.176;6.470;2022-10-14T22:59:53;100272.78;;;14.94;100.00
10897;BME280;5501;51.176;6.470;2022-10-14T23:04:55;100261.06;;;14.97;100.00
10897;BME280;5501;51.176;6.470;2022-10-14T23:09:57;100260.34;;;14.93;100.00
10897;BME280;5501;51.176;6.470;2022-10-14T23:14:58;100253.31;;;15.08;100.00
10897;BME280;5501;51.176;6.470;2022-10-14T23:19:59;100258.78;;;14.89;100.00
10897;BME280;5501;51.176;6.470;2022-10-14T23:25:01;100244.00;;;15.15;100.00
10897;BME280;5501;51.176;6.470;2022-10-14T23:30:03;100242.16;;;15.00;100.00
10897;BME280;5501;51.176;6.470;2022-10-14T23:35:04;100238.69;;;14.98;100.00
10897;BME280;5501;51.176;6.470;2022-10-14T23:40:07;100247.34;;;14.86;100.00
10897;BME280;5501;51.176;6.470;2022-10-14T23:45:09;100245.47;;;14.88;100.00
10897;BME280;5501;51.176;6.470;2022-10-14T23:50:10;100251.47;;;14.76;100.00
10897;BME280;5501;51.176;6.470;2022-10-14T23:55:12;100242.00;;;14.86;100.00
